Time;durP1;ratioP1;P1;durP2;ratioP2;P2;SDS_P1;SDS_P2;PMS_P1;PMS_P2;Temp;Humidity;BMP_temperature;BMP_pressure;BME280_temperature;BME280_humidity;BME280_pressure;Samples;Min_cycle;Max_cycle;Signal;HPM_P1;HPM_P2
2023/01/26 00:00:06;;;;;;;0.70;0.70;;;;;;;;;;5051072;28;20209;-74
2023/01/26 00:02:35;;;;;;;0.70;0.70;;;;;;;;;;5047461;28;20303;-73
2023/01/26 00:05:02;;;;;;;0.82;0.82;;;;;;;;;;5050604;28;20230;-73
2023/01/26 00:07:29;;;;;;;0.70;0.70;;;;;;;;;;5051749;28;20194;-72
2023/01/26 00:09:55;;;;;;;0.70;0.70;;;;;;;;;;5050828;28;20189;-73
2023/01/26 00:12:22;;;;;;;0.70;0.70;;;;;;;;;;5048092;28;20214;-72
2023/01/26 00:14:49;;;;;;;0.80;0.80;;;;;;;;;;5034533;28;20266;-72
2023/01/26 00:17:24;;;;;;;0.70;0.70;;;;;;;;;;5048529;28;20757;-72
2023/01/26 00:19:54;;;;;;;0.65;0.65;;;;;;;;;;5058173;28;20224;-74
2023/01/26 00:22:20;;;;;;;0.70;0.70;;;;;;;;;;5039013;28;20250;-72
2023/01/26 00:24:47;;;;;;;0.68;0.68;;;;;;;;;;5044104;28;20287;-74
2023/01/26 00:27:14;;;;;;;0.90;0.90;;;;;;;;;;5048424;28;20197;-74
2023/01/26 00:29:41;;;;;;;0.60;0.60;;;;;;;;;;5055275;28;20209;-74
2023/01/26 00:32:08;;;;;;;0.70;0.70;;;;;;;;;;5059178;28;20190;-74
2023/01/26 00:34:34;;;;;;;0.70;0.70;;;;;;;;;;5059106;28;20212;-74
2023/01/26 00:37:03;;;;;;;0.60;0.60;;;;;;;;;;5053168;28;20217;-74
2023/01/26 00:39:29;;;;;;;0.60;0.60;;;;;;;;;;5042533;28;20309;-74
2023/01/26 00:42:05;;;;;;;0.68;0.60;;;;;;;;;;5045383;28;20244;-75
2023/01/26 00:44:32;;;;;;;0.60;0.60;;;;;;;;;;5046923;28;20722;-75
2023/01/26 00:46:58;;;;;;;0.65;0.60;;;;;;;;;;5044617;28;20206;-73
2023/01/26 00:49:26;;;;;;;0.70;0.70;;;;;;;;;;5044803;28;20576;-73
2023/01/26 00:51:53;;;;;;;0.80;0.80;;;;;;;;;;5048404;28;20204;-75
2023/01/26 00:54:21;;;;;;;0.70;0.70;;;;;;;;;;5073933;28;20206;-74
2023/01/26 00:56:48;;;;;;;0.70;0.70;;;;;;;;;;5044038;28;20306;-75
2023/01/26 00:59:14;;;;;;;0.70;0.70;;;;;;;;;;5059614;28;20202;-75
2023/01/26 01:01:44;;;;;;;0.70;0.70;;;;;;;;;;5048320;28;20305;-74
2023/01/26 01:04:12;;;;;;;0.70;0.70;;;;;;;;;;5040088;28;20263;-73
2023/01/26 01:06:39;;;;;;;3.10;1.48;;;;;;;;;;5041448;28;20539;-73
2023/01/26 01:09:06;;;;;;;0.60;0.60;;;;;;;;;;5045775;28;20232;-74
2023/01/26 01:11:34;;;;;;;0.70;0.70;;;;;;;;;;5062506;28;20728;-74
2023/01/26 01:14:01;;;;;;;0.60;0.60;;;;;;;;;;5040366;28;20297;-74
2023/01/26 01:16:28;;;;;;;0.70;0.70;;;;;;;;;;5058010;28;20732;-74
2023/01/26 01:18:56;;;;;;;0.70;0.70;;;;;;;;;;5043058;28;20229;-72
2023/01/26 01:21:23;;;;;;;0.70;0.70;;;;;;;;;;5042301;28;20978;-72
2023/01/26 01:23:51;;;;;;;2.15;2.05;;;;;;;;;;5040894;28;20200;-73
2023/01/26 01:26:18;;;;;;;0.70;0.70;;;;;;;;;;5047000;28;20240;-73
2023/01/26 01:28:46;;;;;;;0.70;0.60;;;;;;;;;;5044882;28;20198;-74
2023/01/26 01:31:14;;;;;;;0.75;0.75;;;;;;;;;;5029943;28;20201;-73
2023/01/26 01:33:41;;;;;;;0.60;0.60;;;;;;;;;;5060016;28;20194;-76
2023/01/26 01:36:09;;;;;;;0.70;0.70;;;;;;;;;;5065479;28;20940;-74
2023/01/26 01:38:36;;;;;;;0.70;0.70;;;;;;;;;;5056349;28;20301;-73
2023/01/26 01:41:03;;;;;;;0.77;0.77;;;;;;;;;;5047065;28;20461;-74
2023/01/26 01:43:30;;;;;;;0.70;0.70;;;;;;;;;;5045810;28;20205;-74
2023/01/26 01:45:59;;;;;;;0.80;0.80;;;;;;;;;;5043724;28;20732;-75
2023/01/26 01:48:28;;;;;;;0.70;0.70;;;;;;;;;;5041090;28;20220;-73
2023/01/26 01:50:56;;;;;;;0.65;0.65;;;;;;;;;;5073679;28;20617;-73
2023/01/26 01:53:26;;;;;;;1.27;1.17;;;;;;;;;;5041335;28;20208;-74
2023/01/26 01:55:56;;;;;;;0.70;0.70;;;;;;;;;;5045383;28;20201;-74
2023/01/26 01:58:24;;;;;;;1.05;1.05;;;;;;;;;;5053148;28;20218;-74
2023/01/26 02:00:50;;;;;;;0.80;0.80;;;;;;;;;;5047078;28;20210;-74
2023/01/26 02:03:19;;;;;;;0.77;0.77;;;;;;;;;;5048275;28;20236;-73
2023/01/26 02:05:50;;;;;;;0.70;0.60;;;;;;;;;;5081355;28;20269;-73
2023/01/26 02:08:18;;;;;;;0.70;0.70;;;;;;;;;;5053900;28;20293;-73
2023/01/26 02:10:46;;;;;;;0.70;0.68;;;;;;;;;;5053824;28;20197;-74
2023/01/26 02:13:14;;;;;;;0.70;0.70;;;;;;;;;;5044424;28;20615;-73
2023/01/26 02:15:41;;;;;;;0.77;0.77;;;;;;;;;;5082311;28;20200;-74
2023/01/26 02:18:15;;;;;;;0.80;0.80;;;;;;;;;;5049122;28;20197;-74
2023/01/26 02:20:50;;;;;;;0.60;0.60;;;;;;;;;;5052198;28;20674;-74
2023/01/26 02:23:34;;;;;;;0.70;0.70;;;;;;;;;;5060713;28;20185;-74
2023/01/26 02:26:13;;;;;;;0.70;0.70;;;;;;;;;;5060216;28;20198;-74
2023/01/26 02:28:43;;;;;;;0.70;0.70;;;;;;;;;;5054341;28;20212;-74
2023/01/26 02:31:13;;;;;;;0.75;0.75;;;;;;;;;;5048244;28;20208;-73
2023/01/26 02:33:43;;;;;;;0.70;0.70;;;;;;;;;;5064267;28;20665;-74
2023/01/26 02:36:17;;;;;;;0.70;0.63;;;;;;;;;;5046296;28;20204;-73
2023/01/26 02:38:58;;;;;;;0.70;0.70;;;;;;;;;;5063147;28;20193;-73
2023/01/26 02:44:17;;;;;;;0.70;0.70;;;;;;;;;;5056465;28;20561;-74
2023/01/26 02:46:51;;;;;;;0.70;0.70;;;;;;;;;;5042929;28;20201;-73
2023/01/26 02:52:15;;;;;;;1.55;1.45;;;;;;;;;;5080158;28;20198;-75
2023/01/26 02:57:36;;;;;;;0.77;0.77;;;;;;;;;;5045107;28;20193;-74
2023/01/26 03:00:10;;;;;;;0.70;0.70;;;;;;;;;;5050562;28;20213;-74
2023/01/26 03:02:39;;;;;;;0.82;0.82;;;;;;;;;;5059288;28;20197;-73
2023/01/26 03:05:11;;;;;;;0.70;0.70;;;;;;;;;;5042734;28;20218;-74
2023/01/26 03:07:41;;;;;;;0.60;0.60;;;;;;;;;;5033367;28;20192;-73
2023/01/26 03:10:17;;;;;;;0.68;0.68;;;;;;;;;;5049047;28;20654;-73
2023/01/26 03:12:48;;;;;;;0.75;0.75;;;;;;;;;;5038518;28;20197;-74
2023/01/26 03:29:25;;;;;;;0.70;0.70;;;;;;;;;;5052263;28;20197;-75
2023/01/26 03:32:02;;;;;;;0.70;0.70;;;;;;;;;;5050926;28;20538;-75
2023/01/26 03:34:33;;;;;;;0.70;0.60;;;;;;;;;;5050879;28;20340;-75
2023/01/26 03:37:05;;;;;;;0.60;0.60;;;;;;;;;;5051319;28;20206;-74
2023/01/26 03:56:53;;;;;;;2.45;2.35;;;;;;;;;;5059006;28;20221;-74
2023/01/26 03:59:36;;;;;;;0.77;0.77;;;;;;;;;;5052164;28;20205;-74
2023/01/26 04:10:36;;;;;;;0.70;0.68;;;;;;;;;;5076656;28;20670;-74
2023/01/26 04:21:31;;;;;;;0.80;0.80;;;;;;;;;;5058897;28;20255;-74
2023/01/26 04:24:00;;;;;;;0.70;0.70;;;;;;;;;;5058089;28;20608;-74
2023/01/26 04:26:35;;;;;;;0.70;0.70;;;;;;;;;;5059055;28;20190;-74
2023/01/26 04:29:06;;;;;;;0.60;0.60;;;;;;;;;;5059651;28;20197;-74
2023/01/26 04:31:33;;;;;;;0.80;0.80;;;;;;;;;;5043887;28;20194;-74
2023/01/26 04:34:02;;;;;;;0.60;0.60;;;;;;;;;;5054068;28;20677;-75
2023/01/26 04:36:30;;;;;;;0.85;0.85;;;;;;;;;;5051760;28;20206;-74
2023/01/26 04:38:57;;;;;;;0.70;0.70;;;;;;;;;;5063977;28;20254;-75
2023/01/26 04:41:23;;;;;;;0.80;0.80;;;;;;;;;;5062393;28;20768;-74
2023/01/26 04:43:58;;;;;;;0.70;0.70;;;;;;;;;;5039320;28;20205;-74
2023/01/26 04:46:25;;;;;;;0.70;0.70;;;;;;;;;;5077216;28;20205;-74
2023/01/26 04:48:52;;;;;;;0.70;0.70;;;;;;;;;;5051402;28;20331;-74
2023/01/26 04:51:21;;;;;;;0.70;0.63;;;;;;;;;;5090077;28;20243;-74
2023/01/26 04:53:48;;;;;;;0.60;0.60;;;;;;;;;;5038285;28;20660;-74
2023/01/26 04:56:19;;;;;;;0.73;0.73;;;;;;;;;;5047573;28;20296;-74
2023/01/26 04:58:46;;;;;;;0.63;0.60;;;;;;;;;;5045854;28;20208;-74
2023/01/26 05:01:13;;;;;;;0.80;0.80;;;;;;;;;;5038955;28;20217;-75
2023/01/26 05:03:39;;;;;;;0.80;0.80;;;;;;;;;;5056252;28;20209;-74
2023/01/26 05:06:06;;;;;;;0.70;0.70;;;;;;;;;;5054536;28;20288;-75
2023/01/26 05:08:35;;;;;;;0.70;0.65;;;;;;;;;;5065387;28;20203;-74
2023/01/26 05:11:02;;;;;;;0.63;0.63;;;;;;;;;;5084221;28;20193;-75
2023/01/26 05:13:52;;;;;;;0.70;0.70;;;;;;;;;;5053998;28;20236;-74
2023/01/26 05:16:24;;;;;;;0.70;0.60;;;;;;;;;;5058136;28;20596;-74
2023/01/26 05:19:01;;;;;;;0.70;0.70;;;;;;;;;;5064218;28;21064;-75
2023/01/26 05:21:44;;;;;;;0.70;0.65;;;;;;;;;;5057371;28;20370;-75
2023/01/26 05:24:13;;;;;;;0.70;0.70;;;;;;;;;;5049338;28;20267;-73
2023/01/26 05:29:49;;;;;;;0.70;0.60;;;;;;;;;;5060884;28;20205;-74
2023/01/26 05:32:17;;;;;;;0.60;0.60;;;;;;;;;;5045980;28;20221;-75
2023/01/26 05:34:44;;;;;;;0.68;0.68;;;;;;;;;;5031540;28;20224;-74
2023/01/26 05:37:12;;;;;;;0.60;0.60;;;;;;;;;;5047170;28;20763;-74
2023/01/26 05:39:44;;;;;;;0.70;0.60;;;;;;;;;;5028932;28;20643;-75
2023/01/26 05:42:12;;;;;;;0.80;0.80;;;;;;;;;;5070415;28;20210;-75
2023/01/26 05:45:01;;;;;;;0.77;0.77;;;;;;;;;;5062292;28;20208;-73
2023/01/26 05:47:28;;;;;;;0.60;0.60;;;;;;;;;;5054118;28;20206;-75
2023/01/26 05:49:57;;;;;;;0.75;0.75;;;;;;;;;;5081412;28;20319;-76
2023/01/26 05:52:27;;;;;;;0.70;0.70;;;;;;;;;;5040976;28;20198;-74
2023/01/26 05:54:55;;;;;;;0.70;0.70;;;;;;;;;;5044867;28;20225;-75
2023/01/26 05:57:22;;;;;;;1.50;1.40;;;;;;;;;;5055529;28;20193;-74
2023/01/26 05:59:53;;;;;;;0.70;0.70;;;;;;;;;;5037317;28;20248;-74
2023/01/26 06:02:21;;;;;;;0.73;0.73;;;;;;;;;;5053843;28;20213;-74
2023/01/26 06:04:48;;;;;;;0.73;0.73;;;;;;;;;;5059316;28;20225;-75
2023/01/26 06:07:14;;;;;;;0.73;0.73;;;;;;;;;;5077912;28;20229;-75
2023/01/26 06:10:01;;;;;;;0.70;0.68;;;;;;;;;;5056158;28;20250;-75
2023/01/26 06:12:51;;;;;;;0.70;0.70;;;;;;;;;;5065524;28;20303;-75
2023/01/26 06:15:34;;;;;;;0.63;0.63;;;;;;;;;;5046705;28;20736;-75
2023/01/26 06:18:02;;;;;;;0.70;0.70;;;;;;;;;;5063871;28;20297;-75
2023/01/26 06:20:29;;;;;;;0.70;0.70;;;;;;;;;;5042829;28;20227;-76
2023/01/26 06:23:00;;;;;;;0.70;0.70;;;;;;;;;;5038239;28;20198;-75
2023/01/26 06:25:31;;;;;;;0.68;0.60;;;;;;;;;;5052183;28;20225;-75
2023/01/26 06:27:58;;;;;;;0.60;0.60;;;;;;;;;;5047614;28;20210;-75
2023/01/26 06:30:26;;;;;;;0.70;0.63;;;;;;;;;;5043026;28;20890;-75
2023/01/26 06:32:58;;;;;;;0.70;0.70;;;;;;;;;;5064464;28;20218;-75
2023/01/26 06:35:27;;;;;;;0.70;0.70;;;;;;;;;;5062088;28;20316;-75
2023/01/26 06:37:59;;;;;;;0.70;0.70;;;;;;;;;;5036119;28;20227;-75
2023/01/26 06:40:26;;;;;;;0.90;0.90;;;;;;;;;;5042075;28;20205;-75
2023/01/26 06:42:54;;;;;;;0.70;0.70;;;;;;;;;;5059948;28;20568;-75
2023/01/26 06:45:21;;;;;;;0.90;0.90;;;;;;;;;;5063831;28;20204;-74
2023/01/26 06:47:50;;;;;;;0.70;0.63;;;;;;;;;;5056032;28;20210;-74
2023/01/26 06:50:18;;;;;;;0.70;0.70;;;;;;;;;;5033310;28;20218;-74
2023/01/26 06:52:46;;;;;;;0.65;0.65;;;;;;;;;;5030620;28;20285;-74
2023/01/26 06:55:33;;;;;;;0.70;0.63;;;;;;;;;;5034813;28;20289;-74
2023/01/26 06:58:21;;;;;;;0.70;0.70;;;;;;;;;;5042911;28;20206;-74
2023/01/26 07:01:13;;;;;;;0.60;0.60;;;;;;;;;;5026540;28;20217;-75
2023/01/26 07:03:40;;;;;;;0.70;0.70;;;;;;;;;;5046965;28;20683;-75
2023/01/26 07:06:10;;;;;;;0.70;0.70;;;;;;;;;;5044652;28;20204;-76
2023/01/26 07:08:37;;;;;;;0.60;0.60;;;;;;;;;;5061739;28;20666;-74
2023/01/26 07:11:05;;;;;;;0.63;0.60;;;;;;;;;;5063578;28;20192;-75
2023/01/26 07:13:36;;;;;;;1.10;1.10;;;;;;;;;;5053173;28;20208;-75
2023/01/26 07:16:05;;;;;;;0.70;0.70;;;;;;;;;;5049490;28;20285;-75
2023/01/26 07:18:32;;;;;;;0.60;0.60;;;;;;;;;;5042230;28;20197;-73
2023/01/26 07:20:59;;;;;;;0.70;0.70;;;;;;;;;;5056491;28;20209;-76
2023/01/26 07:23:26;;;;;;;0.60;0.60;;;;;;;;;;5087388;28;20222;-74
2023/01/26 07:25:53;;;;;;;0.60;0.60;;;;;;;;;;5050034;28;20198;-74
2023/01/26 07:28:19;;;;;;;0.68;0.68;;;;;;;;;;5045288;28;20202;-76
2023/01/26 07:30:48;;;;;;;0.63;0.60;;;;;;;;;;5049374;28;20190;-76
2023/01/26 07:33:14;;;;;;;0.70;0.70;;;;;;;;;;5039669;28;20280;-76
2023/01/26 07:35:42;;;;;;;0.70;0.70;;;;;;;;;;5040809;28;20213;-76
2023/01/26 07:38:09;;;;;;;0.77;0.77;;;;;;;;;;5048607;28;20197;-76
2023/01/26 07:40:36;;;;;;;0.70;0.70;;;;;;;;;;5048427;28;20280;-76
2023/01/26 07:43:03;;;;;;;0.73;0.73;;;;;;;;;;5049477;28;20569;-76
2023/01/26 07:45:51;;;;;;;1.25;1.20;;;;;;;;;;5061595;28;20292;-76
2023/01/26 07:48:18;;;;;;;0.70;0.68;;;;;;;;;;5040994;28;20206;-75
2023/01/26 07:50:48;;;;;;;0.70;0.70;;;;;;;;;;5057172;28;20232;-75
2023/01/26 07:53:18;;;;;;;0.60;0.60;;;;;;;;;;5054420;28;20208;-76
2023/01/26 07:55:45;;;;;;;0.70;0.70;;;;;;;;;;5059110;28;20251;-75
2023/01/26 07:58:12;;;;;;;0.70;0.70;;;;;;;;;;5058849;28;20564;-76
2023/01/26 08:00:39;;;;;;;0.68;0.68;;;;;;;;;;5059671;28;20186;-74
2023/01/26 08:03:07;;;;;;;0.70;0.70;;;;;;;;;;5038586;28;20674;-76
2023/01/26 08:05:35;;;;;;;0.65;0.60;;;;;;;;;;5062822;28;20217;-76
2023/01/26 08:08:25;;;;;;;0.70;0.70;;;;;;;;;;5048630;28;20200;-75
2023/01/26 08:10:54;;;;;;;0.65;0.65;;;;;;;;;;5060277;28;20194;-76
2023/01/26 08:13:22;;;;;;;2.67;2.08;;;;;;;;;;5081002;28;20202;-76
2023/01/26 08:16:02;;;;;;;0.80;0.80;;;;;;;;;;5046749;28;20200;-75
2023/01/26 08:18:30;;;;;;;0.60;0.60;;;;;;;;;;5050489;28;20190;-76
2023/01/26 08:20:58;;;;;;;0.68;0.68;;;;;;;;;;5046037;28;20681;-75
2023/01/26 08:23:25;;;;;;;0.70;0.60;;;;;;;;;;5095686;28;20229;-76
2023/01/26 08:25:51;;;;;;;0.70;0.70;;;;;;;;;;5054345;28;20259;-76
2023/01/26 08:28:18;;;;;;;0.60;0.60;;;;;;;;;;5053446;28;20288;-75
2023/01/26 08:30:47;;;;;;;0.68;0.65;;;;;;;;;;5050797;28;20190;-76
2023/01/26 08:33:15;;;;;;;0.70;0.70;;;;;;;;;;5050816;28;20616;-77
2023/01/26 08:35:43;;;;;;;0.60;0.60;;;;;;;;;;5058264;28;20224;-77
2023/01/26 08:38:10;;;;;;;0.70;0.70;;;;;;;;;;5056584;28;20194;-77
2023/01/26 08:40:37;;;;;;;0.60;0.60;;;;;;;;;;5051890;28;20201;-77
2023/01/26 08:43:04;;;;;;;0.65;0.65;;;;;;;;;;5031101;28;20662;-76
2023/01/26 08:45:31;;;;;;;0.85;0.73;;;;;;;;;;5043594;28;20258;-76
2023/01/26 08:47:58;;;;;;;0.90;0.90;;;;;;;;;;5044491;28;20236;-77
2023/01/26 08:50:26;;;;;;;0.70;0.70;;;;;;;;;;5047728;28;20213;-77
2023/01/26 08:52:57;;;;;;;0.68;0.68;;;;;;;;;;5046061;28;20280;-77
2023/01/26 08:55:24;;;;;;;0.70;0.70;;;;;;;;;;5072877;28;20213;-76
2023/01/26 08:57:53;;;;;;;0.70;0.70;;;;;;;;;;5050011;28;20193;-77
2023/01/26 09:00:38;;;;;;;0.70;0.70;;;;;;;;;;5059155;28;20193;-76
2023/01/26 09:03:05;;;;;;;0.70;0.70;;;;;;;;;;5059090;28;20607;-76
2023/01/26 09:05:33;;;;;;;0.70;0.70;;;;;;;;;;5062756;28;20217;-78
2023/01/26 09:08:02;;;;;;;0.60;0.60;;;;;;;;;;5054343;28;20217;-76
2023/01/26 09:10:29;;;;;;;0.60;0.60;;;;;;;;;;5055794;28;20543;-76
2023/01/26 09:12:56;;;;;;;0.70;0.70;;;;;;;;;;5044616;28;20207;-75
2023/01/26 09:15:23;;;;;;;0.70;0.70;;;;;;;;;;5051845;28;20203;-75
2023/01/26 09:17:50;;;;;;;0.60;0.60;;;;;;;;;;5050028;28;20194;-77
2023/01/26 09:20:17;;;;;;;0.60;0.60;;;;;;;;;;5055021;28;20213;-77
2023/01/26 09:22:44;;;;;;;0.70;0.70;;;;;;;;;;5040513;28;20221;-77
2023/01/26 09:25:13;;;;;;;0.70;0.70;;;;;;;;;;5047746;28;20710;-77
2023/01/26 09:27:40;;;;;;;0.70;0.70;;;;;;;;;;5037371;28;20209;-76
2023/01/26 09:30:08;;;;;;;0.70;0.70;;;;;;;;;;5055908;28;20549;-75
2023/01/26 09:32:35;;;;;;;0.70;0.70;;;;;;;;;;5056300;28;20198;-75
2023/01/26 09:35:01;;;;;;;0.70;0.70;;;;;;;;;;5059058;28;20316;-77
2023/01/26 09:37:28;;;;;;;0.60;0.60;;;;;;;;;;5062154;28;20252;-76
2023/01/26 09:39:55;;;;;;;0.60;0.60;;;;;;;;;;5065673;28;20227;-75
2023/01/26 09:42:31;;;;;;;0.90;0.90;;;;;;;;;;5059142;28;20292;-77
2023/01/26 09:45:01;;;;;;;0.70;0.65;;;;;;;;;;5056155;28;20211;-75
2023/01/26 09:47:32;;;;;;;0.70;0.70;;;;;;;;;;5056334;28;20724;-76
2023/01/26 09:50:01;;;;;;;0.60;0.60;;;;;;;;;;5065283;28;20223;-76
2023/01/26 09:52:29;;;;;;;2.90;1.27;;;;;;;;;;5056007;28;20217;-76
2023/01/26 09:54:58;;;;;;;0.60;0.60;;;;;;;;;;5044464;28;20198;-77
2023/01/26 09:57:28;;;;;;;0.63;0.63;;;;;;;;;;5037929;28;20573;-77
2023/01/26 10:00:01;;;;;;;0.65;0.65;;;;;;;;;;5050908;28;20610;-76
2023/01/26 10:02:38;;;;;;;0.60;0.60;;;;;;;;;;5044375;28;20212;-76
2023/01/26 10:05:10;;;;;;;0.70;0.70;;;;;;;;;;5042717;28;20214;-74
2023/01/26 10:07:37;;;;;;;0.60;0.60;;;;;;;;;;5049790;28;20628;-76
2023/01/26 10:10:05;;;;;;;0.60;0.60;;;;;;;;;;5049363;28;20609;-76
2023/01/26 10:12:34;;;;;;;0.60;0.60;;;;;;;;;;5064211;28;20212;-76
2023/01/26 10:15:07;;;;;;;0.70;0.70;;;;;;;;;;5065324;28;20532;-76
2023/01/26 10:17:35;;;;;;;0.70;0.70;;;;;;;;;;5058838;28;20193;-74
2023/01/26 10:20:06;;;;;;;0.73;0.73;;;;;;;;;;5044754;28;20220;-74
2023/01/26 10:22:38;;;;;;;0.77;0.77;;;;;;;;;;5060678;28;20293;-74
2023/01/26 10:25:11;;;;;;;0.70;0.70;;;;;;;;;;5064543;28;20204;-74
2023/01/26 10:27:39;;;;;;;0.65;0.65;;;;;;;;;;5061994;28;20658;-76
2023/01/26 10:30:11;;;;;;;0.80;0.80;;;;;;;;;;5058830;28;20197;-76
2023/01/26 10:32:40;;;;;;;0.70;0.70;;;;;;;;;;5058424;28;20197;-74
2023/01/26 10:35:14;;;;;;;0.70;0.70;;;;;;;;;;5039638;28;20230;-75
2023/01/26 10:37:40;;;;;;;0.70;0.60;;;;;;;;;;5059851;28;20232;-77
2023/01/26 10:40:09;;;;;;;0.70;0.68;;;;;;;;;;5046506;28;20189;-75
2023/01/26 10:42:36;;;;;;;0.68;0.68;;;;;;;;;;5053785;28;20612;-76
2023/01/26 10:45:28;;;;;;;3.20;1.08;;;;;;;;;;5050191;28;20668;-76
2023/01/26 10:48:05;;;;;;;0.70;0.70;;;;;;;;;;5051431;28;20190;-76
2023/01/26 10:50:32;;;;;;;0.60;0.60;;;;;;;;;;5074064;28;20704;-78
2023/01/26 10:53:00;;;;;;;0.60;0.60;;;;;;;;;;5061880;28;20547;-76
2023/01/26 10:55:27;;;;;;;0.60;0.60;;;;;;;;;;5061218;28;20203;-76
2023/01/26 10:57:54;;;;;;;0.70;0.70;;;;;;;;;;5058291;28;20205;-76
2023/01/26 11:00:27;;;;;;;1.25;1.15;;;;;;;;;;5045374;28;20549;-77
2023/01/26 11:02:59;;;;;;;0.60;0.60;;;;;;;;;;5060127;28;20687;-76
2023/01/26 11:05:26;;;;;;;0.63;0.63;;;;;;;;;;5066201;28;20844;-77
2023/01/26 11:07:57;;;;;;;0.70;0.70;;;;;;;;;;5044590;28;20202;-77
2023/01/26 11:10:26;;;;;;;0.70;0.70;;;;;;;;;;5043862;28;20220;-77
2023/01/26 11:13:11;;;;;;;0.70;0.60;;;;;;;;;;5046802;28;20217;-76
2023/01/26 11:15:39;;;;;;;1.90;1.80;;;;;;;;;;5050278;28;20308;-76
2023/01/26 11:18:12;;;;;;;0.70;0.70;;;;;;;;;;5044424;28;20213;-77
2023/01/26 11:20:45;;;;;;;0.60;0.60;;;;;;;;;;5083117;28;20665;-76
2023/01/26 11:23:16;;;;;;;0.70;0.70;;;;;;;;;;5060630;28;20205;-76
2023/01/26 11:25:50;;;;;;;0.60;0.60;;;;;;;;;;5057375;28;20193;-76
2023/01/26 11:28:26;;;;;;;0.85;0.85;;;;;;;;;;5088367;28;20571;-75
2023/01/26 11:31:02;;;;;;;0.60;0.60;;;;;;;;;;5052767;28;20185;-75
2023/01/26 11:33:34;;;;;;;1.15;1.08;;;;;;;;;;5047395;28;20196;-75
2023/01/26 11:36:04;;;;;;;0.60;0.60;;;;;;;;;;5053050;28;20362;-76
2023/01/26 11:38:37;;;;;;;0.82;0.82;;;;;;;;;;5045734;28;20301;-78
2023/01/26 11:41:12;;;;;;;0.80;0.80;;;;;;;;;;5046349;28;20221;-76
2023/01/26 11:43:57;;;;;;;0.70;0.70;;;;;;;;;;5049385;28;20271;-77
2023/01/26 11:46:34;;;;;;;0.70;0.70;;;;;;;;;;5041084;28;20189;-78
2023/01/26 11:49:09;;;;;;;0.60;0.60;;;;;;;;;;5058091;28;20225;-77
2023/01/26 11:51:40;;;;;;;0.60;0.60;;;;;;;;;;5044079;28;20204;-77
2023/01/26 11:54:16;;;;;;;0.60;0.60;;;;;;;;;;5045970;28;20202;-77
2023/01/26 11:56:46;;;;;;;0.80;0.80;;;;;;;;;;5054936;28;20192;-79
2023/01/26 11:59:15;;;;;;;0.60;0.60;;;;;;;;;;5061017;28;20236;-75
2023/01/26 12:01:45;;;;;;;0.60;0.60;;;;;;;;;;5051323;28;20190;-76
2023/01/26 12:04:16;;;;;;;0.60;0.60;;;;;;;;;;5057928;28;20282;-76
2023/01/26 12:06:45;;;;;;;0.77;0.77;;;;;;;;;;5050310;28;20194;-77
2023/01/26 12:09:17;;;;;;;0.60;0.60;;;;;;;;;;5045081;28;20197;-76
2023/01/26 12:11:47;;;;;;;0.70;0.70;;;;;;;;;;5054278;28;20535;-76
2023/01/26 12:14:19;;;;;;;0.70;0.60;;;;;;;;;;5035694;28;20331;-77
2023/01/26 12:16:57;;;;;;;0.70;0.60;;;;;;;;;;5072218;28;20192;-76
2023/01/26 12:19:48;;;;;;;0.70;0.60;;;;;;;;;;5079738;28;20278;-77
2023/01/26 12:22:18;;;;;;;0.60;0.60;;;;;;;;;;5042901;28;20767;-76
2023/01/26 12:24:49;;;;;;;0.70;0.70;;;;;;;;;;5045017;28;20189;-76
2023/01/26 12:27:39;;;;;;;0.60;0.60;;;;;;;;;;5075225;28;20248;-75
2023/01/26 12:30:18;;;;;;;0.70;0.70;;;;;;;;;;5051345;28;21180;-75
2023/01/26 12:32:45;;;;;;;0.70;0.70;;;;;;;;;;5043363;28;20189;-76
2023/01/26 12:35:19;;;;;;;1.05;1.05;;;;;;;;;;5052178;28;20630;-76
2023/01/26 12:37:52;;;;;;;0.70;0.70;;;;;;;;;;5053862;28;20204;-75
2023/01/26 12:40:24;;;;;;;0.70;0.70;;;;;;;;;;5064751;28;20501;-77
2023/01/26 12:42:55;;;;;;;0.60;0.57;;;;;;;;;;5044870;28;20209;-75
2023/01/26 12:45:26;;;;;;;0.70;0.60;;;;;;;;;;5059638;28;21123;-76
2023/01/26 12:47:55;;;;;;;0.70;0.60;;;;;;;;;;5053736;28;20202;-76
2023/01/26 12:50:26;;;;;;;0.70;0.70;;;;;;;;;;5053801;28;20229;-76
2023/01/26 12:52:55;;;;;;;0.60;0.60;;;;;;;;;;5058646;28;20197;-74
2023/01/26 12:55:24;;;;;;;0.60;0.60;;;;;;;;;;5041270;28;20193;-76
2023/01/26 12:57:53;;;;;;;0.60;0.60;;;;;;;;;;5055741;28;20621;-75
2023/01/26 13:00:21;;;;;;;1.02;0.93;;;;;;;;;;5053488;28;20209;-76
2023/01/26 13:02:51;;;;;;;0.73;0.73;;;;;;;;;;5055021;28;20216;-76
2023/01/26 13:05:29;;;;;;;1.80;1.67;;;;;;;;;;5043223;28;20694;-75
2023/01/26 13:07:55;;;;;;;1.65;1.55;;;;;;;;;;5044302;28;20561;-75
2023/01/26 13:10:27;;;;;;;0.70;0.70;;;;;;;;;;5046317;28;20192;-77
2023/01/26 13:12:54;;;;;;;1.08;1.08;;;;;;;;;;5064812;28;21129;-75
2023/01/26 13:15:22;;;;;;;0.60;0.60;;;;;;;;;;5051599;28;20231;-75
2023/01/26 13:17:50;;;;;;;0.60;0.60;;;;;;;;;;5059409;28;20193;-76
2023/01/26 13:20:25;;;;;;;0.80;0.80;;;;;;;;;;5065556;28;20589;-76
2023/01/26 13:22:53;;;;;;;0.70;0.70;;;;;;;;;;5058633;28;20227;-77
2023/01/26 13:25:27;;;;;;;0.60;0.60;;;;;;;;;;5057916;28;20221;-76
2023/01/26 13:27:56;;;;;;;0.70;0.70;;;;;;;;;;5041264;28;20304;-75
2023/01/26 13:30:48;;;;;;;0.60;0.60;;;;;;;;;;5058135;28;20203;-75
2023/01/26 13:33:18;;;;;;;0.70;0.70;;;;;;;;;;5053951;28;20257;-76
2023/01/26 13:35:47;;;;;;;0.60;0.60;;;;;;;;;;5049784;28;20636;-76
2023/01/26 13:38:18;;;;;;;1.17;1.17;;;;;;;;;;5028815;28;20194;-76
2023/01/26 13:40:46;;;;;;;0.68;0.68;;;;;;;;;;5041161;28;20597;-77
2023/01/26 13:43:17;;;;;;;0.80;0.80;;;;;;;;;;5041623;28;20201;-77
2023/01/26 13:46:16;;;;;;;0.60;0.60;;;;;;;;;;5046650;28;20194;-75
2023/01/26 13:48:45;;;;;;;0.60;0.60;;;;;;;;;;5049944;28;20194;-75
2023/01/26 13:51:13;;;;;;;0.70;0.70;;;;;;;;;;5053439;28;20279;-77
2023/01/26 13:53:45;;;;;;;0.70;0.70;;;;;;;;;;5059895;28;20185;-76
2023/01/26 13:56:19;;;;;;;1.25;1.20;;;;;;;;;;5052570;28;20205;-76
2023/01/26 13:58:47;;;;;;;1.70;1.60;;;;;;;;;;5062400;28;20214;-77
2023/01/26 14:01:15;;;;;;;7.10;1.77;;;;;;;;;;5058876;28;20236;-77
2023/01/26 14:03:42;;;;;;;0.60;0.60;;;;;;;;;;5060111;28;20210;-76
2023/01/26 14:06:10;;;;;;;0.60;0.60;;;;;;;;;;5062613;28;20205;-77
2023/01/26 14:08:38;;;;;;;0.70;0.70;;;;;;;;;;5043811;28;20275;-76
2023/01/26 14:11:14;;;;;;;0.60;0.60;;;;;;;;;;5053389;28;20551;-76
2023/01/26 14:13:41;;;;;;;0.60;0.60;;;;;;;;;;5042075;28;20189;-76
2023/01/26 14:16:18;;;;;;;0.68;0.68;;;;;;;;;;5041467;28;20683;-77
2023/01/26 14:18:46;;;;;;;0.60;0.60;;;;;;;;;;5042924;28;20236;-75
2023/01/26 14:21:15;;;;;;;0.60;0.60;;;;;;;;;;5046939;28;20215;-77
2023/01/26 14:23:42;;;;;;;0.60;0.60;;;;;;;;;;5046236;28;20279;-77
2023/01/26 14:26:16;;;;;;;0.60;0.60;;;;;;;;;;5055084;28;20248;-77
2023/01/26 14:28:44;;;;;;;0.60;0.60;;;;;;;;;;5093329;28;20856;-77
2023/01/26 14:31:14;;;;;;;0.70;0.70;;;;;;;;;;5061839;28;20217;-77
2023/01/26 14:33:42;;;;;;;0.60;0.60;;;;;;;;;;5052616;28;20545;-75
2023/01/26 14:36:12;;;;;;;1.30;1.23;;;;;;;;;;5057818;28;20285;-79
2023/01/26 14:38:42;;;;;;;0.85;0.85;;;;;;;;;;5063869;28;20189;-78
2023/01/26 14:41:14;;;;;;;0.60;0.60;;;;;;;;;;5061448;28;20209;-75
2023/01/26 14:43:44;;;;;;;0.60;0.60;;;;;;;;;;5052930;28;20208;-74
2023/01/26 14:46:14;;;;;;;0.60;0.60;;;;;;;;;;5048227;28;20198;-78
2023/01/26 14:49:03;;;;;;;0.70;0.70;;;;;;;;;;5042925;28;20232;-77
2023/01/26 14:51:33;;;;;;;0.60;0.60;;;;;;;;;;5046998;28;20185;-77
2023/01/26 14:54:03;;;;;;;0.60;0.60;;;;;;;;;;5039169;28;20617;-76
2023/01/26 14:56:52;;;;;;;0.60;0.60;;;;;;;;;;5044330;22;20304;-74
2023/01/26 14:59:20;;;;;;;0.60;0.60;;;;;;;;;;5029032;28;20586;-75
2023/01/26 15:01:47;;;;;;;0.60;0.60;;;;;;;;;;5026778;28;20204;-76
2023/01/26 15:04:19;;;;;;;0.70;0.70;;;;;;;;;;5001342;28;20210;-73
2023/01/26 15:06:46;;;;;;;0.60;0.60;;;;;;;;;;5031604;28;20186;-73
2023/01/26 15:09:19;;;;;;;0.70;0.70;;;;;;;;;;5028048;28;20202;-76
2023/01/26 15:14:47;;;;;;;0.60;0.60;;;;;;;;;;5031196;28;20256;-74
2023/01/26 15:17:35;;;;;;;0.60;0.60;;;;;;;;;;5029335;28;20202;-73
2023/01/26 15:20:03;;;;;;;0.60;0.60;;;;;;;;;;5030068;28;20220;-77
2023/01/26 15:22:31;;;;;;;0.70;0.70;;;;;;;;;;5027203;28;20201;-75
2023/01/26 15:25:01;;;;;;;0.60;0.60;;;;;;;;;;5029980;28;20681;-74
2023/01/26 15:27:34;;;;;;;0.90;0.90;;;;;;;;;;5028235;28;20221;-72
2023/01/26 15:30:03;;;;;;;0.60;0.60;;;;;;;;;;5030783;28;20205;-74
2023/01/26 15:32:31;;;;;;;0.65;0.65;;;;;;;;;;5030391;28;20699;-75
2023/01/26 15:35:03;;;;;;;0.70;0.70;;;;;;;;;;5029739;28;20198;-72
2023/01/26 15:37:31;;;;;;;0.60;0.60;;;;;;;;;;5030066;28;20204;-76
2023/01/26 15:39:59;;;;;;;0.70;0.70;;;;;;;;;;5027235;28;20198;-75
2023/01/26 15:42:29;;;;;;;0.60;0.60;;;;;;;;;;5018728;28;20230;-76
2023/01/26 15:44:58;;;;;;;0.60;0.60;;;;;;;;;;5012934;28;20223;-75
2023/01/26 15:47:25;;;;;;;0.60;0.50;;;;;;;;;;5030160;28;20281;-74
2023/01/26 15:49:57;;;;;;;0.60;0.60;;;;;;;;;;5012850;28;20220;-75
2023/01/26 15:52:29;;;;;;;0.60;0.60;;;;;;;;;;5022800;28;20206;-76
2023/01/26 15:54:56;;;;;;;0.60;0.60;;;;;;;;;;5030268;28;20194;-75
2023/01/26 15:57:22;;;;;;;0.60;0.60;;;;;;;;;;5010411;28;20240;-76
2023/01/26 15:59:49;;;;;;;0.60;0.60;;;;;;;;;;5028393;28;20236;-75
2023/01/26 16:02:19;;;;;;;0.60;0.60;;;;;;;;;;5018567;28;20257;-74
2023/01/26 16:04:46;;;;;;;0.60;0.60;;;;;;;;;;5028859;28;20564;-75